createdAt,value
2018-09-10T00:00:08.492Z,17.29
2018-09-10T00:02:38.544Z,17.29
2018-09-10T00:05:09.288Z,17.19
2018-09-10T00:07:38.664Z,17.12
2018-09-10T00:10:07.594Z,17.17
2018-09-10T00:12:36.612Z,17.18
2018-09-10T00:15:07.249Z,17.15
2018-09-10T00:17:36.034Z,17.19
2018-09-10T00:20:05.288Z,17.16
2018-09-10T00:22:35.675Z,17.16
2018-09-10T00:25:04.663Z,17.14
2018-09-10T00:27:33.425Z,17.17
2018-09-10T00:30:03.998Z,17.20
2018-09-10T00:32:33.137Z,17.18
2018-09-10T00:35:01.967Z,17.16
2018-09-10T00:37:30.999Z,17.14
2018-09-10T00:39:59.947Z,17.13
2018-09-10T00:42:28.627Z,17.12
2018-09-10T00:44:57.583Z,17.09
2018-09-10T00:47:26.217Z,17.06
2018-09-10T00:49:55.185Z,17.06
2018-09-10T00:52:24.011Z,17.04
2018-09-10T00:54:53.187Z,17.01
2018-09-10T00:57:22.890Z,17.00
2018-09-10T00:59:51.546Z,16.95
2018-09-10T01:02:20.777Z,16.94
2018-09-10T01:04:49.506Z,16.88
2018-09-10T01:07:18.352Z,16.91
2018-09-10T01:09:47.466Z,16.92
2018-09-10T01:12:18.263Z,16.92
2018-09-10T01:14:46.968Z,16.91
2018-09-10T01:17:15.570Z,16.88
2018-09-10T01:19:44.179Z,16.83
2018-09-10T01:22:13.606Z,16.82
2018-09-10T01:24:42.435Z,16.82
2018-09-10T01:27:11.496Z,16.83
2018-09-10T01:29:40.421Z,16.81
2018-09-10T01:32:09.189Z,16.84
2018-09-10T01:34:43.209Z,16.91
2018-09-10T01:37:11.814Z,16.97
2018-09-10T01:39:40.832Z,17.02
2018-09-10T01:42:09.461Z,17.03
2018-09-10T01:44:38.571Z,17.04
2018-09-10T01:47:07.477Z,17.06
2018-09-10T01:49:36.153Z,17.10
2018-09-10T01:52:04.927Z,17.17
2018-09-10T01:54:33.562Z,17.20
2018-09-10T01:57:02.670Z,17.25
2018-09-10T01:59:33.125Z,17.25
2018-09-10T02:02:01.728Z,17.26
2018-09-10T02:04:30.316Z,17.27
2018-09-10T02:06:58.914Z,17.29
2018-09-10T02:09:27.481Z,17.28
2018-09-10T02:11:56.616Z,17.28
2018-09-10T02:14:25.178Z,17.28
2018-09-10T02:16:54.070Z,17.32
2018-09-10T02:19:22.853Z,17.38
2018-09-10T02:21:52.136Z,17.38
2018-09-10T02:24:22.003Z,17.42
2018-09-10T02:26:51.272Z,17.45
2018-09-10T02:29:20.955Z,17.47
2018-09-10T02:31:50.731Z,17.49
2018-09-10T02:34:21.149Z,17.55
2018-09-10T02:36:49.768Z,17.55
2018-09-10T02:39:18.397Z,17.56
2018-09-10T02:41:48.342Z,17.61
2018-09-10T02:44:17.132Z,17.60
2018-09-10T02:46:46.252Z,17.59
2018-09-10T02:49:15.854Z,17.58
2018-09-10T02:51:45.816Z,17.57
2018-09-10T02:54:15.052Z,17.56
2018-09-10T02:56:44.891Z,17.59
2018-09-10T02:59:14.051Z,17.58
2018-09-10T03:01:43.093Z,17.56
2018-09-10T03:04:11.844Z,17.56
2018-09-10T03:06:40.395Z,17.57
2018-09-10T03:09:09.680Z,17.57
2018-09-10T03:11:39.357Z,17.58
2018-09-10T03:14:09.545Z,17.50
2018-09-10T03:16:38.356Z,17.42
2018-09-10T03:19:07.080Z,17.36
2018-09-10T03:21:35.683Z,17.32
2018-09-10T03:24:05.856Z,17.19
2018-09-10T03:26:34.473Z,17.18
2018-09-10T03:29:03.626Z,17.16
2018-09-10T03:31:32.558Z,17.16
2018-09-10T03:34:01.797Z,17.10
2018-09-10T03:36:30.411Z,17.07
2018-09-10T03:38:59.052Z,17.08
2018-09-10T03:41:28.847Z,17.05
2018-09-10T03:43:58.035Z,17.07
2018-09-10T03:46:26.969Z,17.04
2018-09-10T03:48:55.756Z,17.03
2018-09-10T03:51:24.619Z,17.06
2018-09-10T03:53:54.432Z,17.02
2018-09-10T03:56:24.359Z,17.05
2018-09-10T03:58:53.320Z,17.12
2018-09-10T04:01:22.592Z,17.12
2018-09-10T04:03:52.930Z,17.13
2018-09-10T04:06:21.493Z,17.15
2018-09-10T04:08:50.242Z,17.13
2018-09-10T04:11:20.532Z,17.14
2018-09-10T04:13:49.928Z,17.14
2018-09-10T04:16:19.670Z,17.15
2018-09-10T04:18:49.900Z,17.15
2018-09-10T04:21:18.778Z,17.16
2018-09-10T04:23:47.613Z,17.18
2018-09-10T04:26:16.865Z,17.20
2018-09-10T04:28:45.709Z,17.19
2018-09-10T04:31:15.312Z,17.15
2018-09-10T04:33:44.415Z,17.10
2018-09-10T04:36:13.383Z,17.17
2018-09-10T04:38:42.009Z,17.19
2018-09-10T04:41:12.872Z,17.26
2018-09-10T04:43:42.218Z,17.28
2018-09-10T04:46:11.472Z,17.31
2018-09-10T04:48:40.977Z,17.32
2018-09-10T04:51:09.791Z,17.37
2018-09-10T04:53:38.459Z,17.40
2018-09-10T04:56:07.177Z,17.46
2018-09-10T04:58:37.204Z,17.48
2018-09-10T05:01:06.674Z,17.57
2018-09-10T05:03:35.850Z,17.65
2018-09-10T05:06:04.692Z,17.74
2018-09-10T05:08:33.645Z,17.81
2018-09-10T05:11:02.750Z,17.84
2018-09-10T05:13:31.698Z,17.89
2018-09-10T05:16:00.758Z,17.96
2018-09-10T05:18:29.779Z,18.01
2018-09-10T05:20:58.355Z,18.03
2018-09-10T05:23:26.979Z,18.09
2018-09-10T05:26:01.983Z,18.10
2018-09-10T05:28:30.791Z,18.13
2018-09-10T05:30:59.476Z,18.16
2018-09-10T05:33:28.732Z,18.18
2018-09-10T05:35:57.835Z,18.20
2018-09-10T05:38:27.645Z,18.23
2018-09-10T05:40:58.476Z,18.22
2018-09-10T05:43:27.151Z,18.23
2018-09-10T05:45:56.147Z,18.20
2018-09-10T05:48:26.155Z,18.24
2018-09-10T05:50:54.973Z,18.26
2018-09-10T05:53:24.408Z,18.26
2018-09-10T05:55:53.197Z,18.22
2018-09-10T05:58:21.878Z,18.23
2018-09-10T06:00:50.676Z,18.25
2018-09-10T06:03:20.770Z,18.31
2018-09-10T06:05:49.591Z,18.34
2018-09-10T06:08:18.390Z,18.29
2018-09-10T06:10:47.169Z,18.29
2018-09-10T06:13:15.892Z,18.26
2018-09-10T06:15:44.779Z,18.30
2018-09-10T06:18:14.332Z,18.33
2018-09-10T06:20:44.659Z,18.35
2018-09-10T06:23:13.237Z,18.37
2018-09-10T06:25:43.270Z,18.43
2018-09-10T06:28:12.238Z,18.47
2018-09-10T06:30:41.198Z,18.56
2018-09-10T06:33:10.636Z,18.61
2018-09-10T06:35:40.897Z,18.65
2018-09-10T06:38:09.483Z,18.70
2018-09-10T06:40:38.616Z,18.75
2018-09-10T06:43:07.653Z,18.80
2018-09-10T06:45:36.224Z,18.85
2018-09-10T06:48:06.288Z,18.97
2018-09-10T06:50:35.765Z,19.03
2018-09-10T06:53:05.555Z,19.13
2018-09-10T06:55:34.662Z,19.16
2018-09-10T06:58:03.502Z,19.23
2018-09-10T07:00:32.740Z,19.26
2018-09-10T07:03:01.625Z,19.30
2018-09-10T07:05:31.020Z,19.35
2018-09-10T07:07:59.776Z,19.39
2018-09-10T07:10:28.648Z,19.39
2018-09-10T07:12:57.339Z,19.40
2018-09-10T07:15:26.101Z,19.38
2018-09-10T07:17:56.358Z,19.38
2018-09-10T07:20:25.348Z,19.35
2018-09-10T07:22:54.811Z,19.33
2018-09-10T07:25:23.514Z,19.28
2018-09-10T07:27:52.153Z,19.28
2018-09-10T07:30:20.895Z,19.23
2018-09-10T07:32:49.406Z,19.20
2018-09-10T07:35:18.170Z,19.15
2018-09-10T07:37:47.568Z,19.15
2018-09-10T07:40:16.252Z,19.16
2018-09-10T07:42:45.042Z,19.19
2018-09-10T07:45:13.880Z,19.23
2018-09-10T07:47:42.816Z,19.22
2018-09-10T07:50:12.439Z,19.29
2018-09-10T07:52:41.212Z,19.34
2018-09-10T07:55:09.919Z,19.36
2018-09-10T07:57:39.281Z,19.37
2018-09-10T08:00:08.798Z,19.35
2018-09-10T08:02:37.470Z,19.31
2018-09-10T08:05:07.139Z,19.33
2018-09-10T08:07:35.845Z,19.32
2018-09-10T08:10:05.582Z,19.34
2018-09-10T08:12:34.791Z,19.37
2018-09-10T08:15:04.014Z,19.43
2018-09-10T08:17:32.713Z,19.51
2018-09-10T08:20:02.485Z,19.56
2018-09-10T08:22:32.286Z,19.66
2018-09-10T08:25:00.975Z,19.81
2018-09-10T08:27:30.755Z,19.97
2018-09-10T08:30:00.392Z,20.15
2018-09-10T08:32:29.046Z,20.31
2018-09-10T08:34:57.618Z,20.38
2018-09-10T08:37:26.274Z,20.43
2018-09-10T08:39:54.838Z,20.50
2018-09-10T08:42:23.452Z,20.51
2018-09-10T08:44:52.103Z,20.57
2018-09-10T08:47:21.030Z,20.60
2018-09-10T08:49:50.044Z,20.67
2018-09-10T08:52:19.022Z,20.69
2018-09-10T08:54:48.244Z,20.76
2018-09-10T08:57:16.677Z,20.83
2018-09-10T08:59:46.221Z,20.85
2018-09-10T09:02:15.795Z,20.86
2018-09-10T09:04:45.454Z,20.83
2018-09-10T09:07:14.209Z,20.81
2018-09-10T09:09:43.712Z,20.78
2018-09-10T09:12:12.491Z,20.76
2018-09-10T09:14:41.175Z,20.77
2018-09-10T09:17:09.734Z,20.77
2018-09-10T09:19:38.552Z,20.80
2018-09-10T09:22:07.358Z,20.84
2018-09-10T09:24:36.099Z,20.90
2018-09-10T09:27:05.467Z,20.95
2018-09-10T09:29:34.189Z,20.97
2018-09-10T09:32:03.158Z,20.99
2018-09-10T09:34:37.208Z,21.04
2018-09-10T09:37:16.278Z,21.13
2018-09-10T09:39:50.532Z,21.21
2018-09-10T09:42:24.669Z,21.22
2018-09-10T09:44:58.666Z,21.27
2018-09-10T09:47:28.195Z,21.38
2018-09-10T09:49:57.629Z,21.35
2018-09-10T09:52:26.598Z,21.40
2018-09-10T09:54:55.349Z,21.37
2018-09-10T09:57:25.493Z,21.37
2018-09-10T09:59:55.119Z,21.36
2018-09-10T10:02:29.438Z,21.33
2018-09-10T10:04:58.963Z,21.32
2018-09-10T10:07:28.139Z,21.33
2018-09-10T10:09:56.885Z,21.29
2018-09-10T10:12:27.762Z,21.27
2018-09-10T10:14:56.812Z,21.30
2018-09-10T10:17:26.178Z,21.33
2018-09-10T10:19:55.355Z,21.38
2018-09-10T10:22:25.103Z,21.44
2018-09-10T10:24:53.890Z,21.49
2018-09-10T10:27:23.083Z,21.48
2018-09-10T10:29:51.581Z,21.49
2018-09-10T10:32:20.508Z,21.51
2018-09-10T10:34:49.206Z,21.56
2018-09-10T10:37:17.918Z,21.66
2018-09-10T10:39:46.855Z,21.76
2018-09-10T10:42:16.530Z,21.77
2018-09-10T10:44:46.302Z,21.74
2018-09-10T10:47:16.511Z,21.66
2018-09-10T10:49:45.294Z,21.84
2018-09-10T10:52:13.937Z,22.01
2018-09-10T10:54:42.668Z,22.15
2018-09-10T10:57:11.678Z,22.29
2018-09-10T10:59:45.223Z,22.38
2018-09-10T11:02:14.225Z,22.43
2018-09-10T11:04:43.052Z,22.41
2018-09-10T11:07:11.870Z,22.53
2018-09-10T11:09:40.879Z,22.53
2018-09-10T11:12:09.559Z,22.38
2018-09-10T11:14:39.619Z,22.44
2018-09-10T11:17:09.153Z,22.44
2018-09-10T11:19:37.767Z,22.54
2018-09-10T11:22:07.081Z,22.58
2018-09-10T11:24:36.610Z,22.64
2018-09-10T11:27:05.497Z,22.61
2018-09-10T11:29:35.243Z,22.51
2018-09-10T11:32:05.073Z,22.47
2018-09-10T11:34:35.366Z,22.53
2018-09-10T11:37:05.219Z,22.57
2018-09-10T11:39:34.861Z,22.65
2018-09-10T11:42:04.106Z,22.70
2018-09-10T11:44:33.898Z,22.75
2018-09-10T11:47:03.785Z,22.67
2018-09-10T11:49:32.804Z,22.64
2018-09-10T11:52:02.423Z,22.59
2018-09-10T11:54:34.925Z,22.61
2018-09-10T11:57:03.864Z,22.64
2018-09-10T11:59:32.477Z,22.67
2018-09-10T12:02:02.174Z,22.69
2018-09-10T12:04:31.015Z,22.69
2018-09-10T12:06:59.642Z,22.81
2018-09-10T12:09:28.411Z,22.89
2018-09-10T12:11:57.046Z,22.86
2018-09-10T12:14:25.556Z,22.91
2018-09-10T12:16:54.820Z,22.91
2018-09-10T12:19:23.775Z,22.94
2018-09-10T12:21:53.166Z,23.11
2018-09-10T12:24:21.989Z,23.18
2018-09-10T12:26:50.916Z,23.15
2018-09-10T12:29:20.764Z,23.18
2018-09-10T12:31:49.957Z,23.09
2018-09-10T12:34:18.748Z,23.12
2018-09-10T12:36:47.406Z,23.11
2018-09-10T12:39:16.481Z,23.20
2018-09-10T12:41:45.251Z,23.15
2018-09-10T12:44:14.220Z,23.28
2018-09-10T12:46:43.280Z,23.31
2018-09-10T12:49:12.313Z,23.32
2018-09-10T12:51:42.567Z,23.25
2018-09-10T12:54:12.315Z,23.14
2018-09-10T12:56:43.062Z,23.02
2018-09-10T12:59:12.452Z,22.93
2018-09-10T13:01:43.613Z,22.89
2018-09-10T13:04:12.787Z,22.89
2018-09-10T13:06:41.840Z,22.86
2018-09-10T13:09:11.595Z,22.87
2018-09-10T13:11:40.592Z,22.92
2018-09-10T13:14:09.535Z,22.99
2018-09-10T13:16:38.476Z,23.00
2018-09-10T13:19:07.424Z,23.02
2018-09-10T13:21:36.139Z,23.02
2018-09-10T13:24:05.081Z,23.00
2018-09-10T13:26:34.470Z,23.02
2018-09-10T13:29:04.551Z,23.01
2018-09-10T13:31:33.672Z,23.02
2018-09-10T13:34:02.413Z,23.02
2018-09-10T13:36:31.100Z,23.02
2018-09-10T13:38:59.710Z,23.16
2018-09-10T13:41:28.473Z,23.33
2018-09-10T13:43:57.324Z,23.44
2018-09-10T13:46:27.152Z,23.54
2018-09-10T13:48:56.455Z,23.57
2018-09-10T13:51:25.844Z,23.60
2018-09-10T13:53:54.908Z,23.59
2018-09-10T13:56:24.810Z,23.63
2018-09-10T13:58:53.609Z,23.62
2018-09-10T14:01:22.374Z,23.72
2018-09-10T14:03:52.608Z,23.84
2018-09-10T14:06:21.578Z,23.84
2018-09-10T14:08:51.362Z,23.83
2018-09-10T14:11:21.333Z,23.77
2018-09-10T14:13:51.830Z,23.74
2018-09-10T14:16:21.455Z,23.72
2018-09-10T14:18:50.354Z,23.51
2018-09-10T14:21:21.208Z,23.40
2018-09-10T14:23:50.828Z,23.18
2018-09-10T14:26:19.500Z,23.21
2018-09-10T14:28:48.286Z,23.19
2018-09-10T14:31:18.552Z,23.18
2018-09-10T14:33:48.165Z,23.04
2018-09-10T14:36:17.624Z,23.07
2018-09-10T14:38:48.411Z,23.04
2018-09-10T14:41:18.401Z,22.91
2018-09-10T14:43:47.987Z,22.85
2018-09-10T14:46:16.808Z,22.86
2018-09-10T14:48:48.270Z,22.86
2018-09-10T14:51:17.521Z,22.70
2018-09-10T14:53:46.266Z,22.58
2018-09-10T14:56:16.415Z,22.56
2018-09-10T14:58:46.195Z,22.50
2018-09-10T15:01:15.684Z,22.47
2018-09-10T15:03:44.396Z,22.43
2018-09-10T15:06:13.267Z,22.45
2018-09-10T15:08:42.447Z,22.48
2018-09-10T15:11:11.985Z,22.52
2018-09-10T15:13:41.936Z,22.53
2018-09-10T15:16:11.665Z,22.50
2018-09-10T15:18:40.979Z,22.41
2018-09-10T15:21:09.686Z,22.37
2018-09-10T15:23:38.546Z,22.32
2018-09-10T15:26:07.819Z,22.31
2018-09-10T15:28:37.125Z,22.30
2018-09-10T15:31:07.278Z,22.29
2018-09-10T15:33:37.058Z,22.31
2018-09-10T15:36:07.801Z,22.27
2018-09-10T15:38:37.053Z,22.25
2018-09-10T15:41:09.192Z,22.24
2018-09-10T15:43:38.123Z,22.18
2018-09-10T15:46:06.969Z,22.16
2018-09-10T15:48:36.578Z,22.18
2018-09-10T15:51:07.109Z,22.15
2018-09-10T15:53:36.308Z,22.15
2018-09-10T15:56:06.225Z,22.14
2018-09-10T15:58:36.443Z,22.14
2018-09-10T16:01:05.197Z,22.17
2018-09-10T16:03:36.155Z,22.18
2018-09-10T16:06:05.458Z,22.18
2018-09-10T16:08:35.301Z,22.17
2018-09-10T16:11:05.428Z,22.17
2018-09-10T16:13:36.116Z,22.18
2018-09-10T16:16:04.951Z,22.20
2018-09-10T16:18:34.782Z,22.24
2018-09-10T16:21:05.176Z,22.23
2018-09-10T16:23:35.813Z,22.21
2018-09-10T16:26:05.025Z,22.19
2018-09-10T16:28:34.644Z,22.20
2018-09-10T16:31:05.103Z,22.17
2018-09-10T16:33:35.240Z,22.11
2018-09-10T16:36:06.662Z,22.04
2018-09-10T16:38:35.564Z,21.98
2018-09-10T16:41:05.655Z,21.97
2018-09-10T16:43:35.975Z,22.00
2018-09-10T16:46:06.962Z,21.97
2018-09-10T16:48:40.051Z,22.00
2018-09-10T16:51:09.020Z,21.98
2018-09-10T16:53:40.090Z,21.94
2018-09-10T16:56:09.304Z,21.86
2018-09-10T16:58:38.835Z,21.86
2018-09-10T17:01:08.120Z,21.84
2018-09-10T17:03:39.088Z,21.82
2018-09-10T17:06:09.409Z,21.79
2018-09-10T17:09:01.159Z,21.77
2018-09-10T17:11:31.059Z,21.73
2018-09-10T17:14:00.140Z,21.68
2018-09-10T17:16:30.392Z,21.64
2018-09-10T17:18:59.048Z,21.56
2018-09-10T17:21:29.146Z,21.54
2018-09-10T17:23:58.609Z,21.54
2018-09-10T17:26:28.466Z,21.49
2018-09-10T17:28:58.995Z,21.51
2018-09-10T17:31:27.823Z,21.54
2018-09-10T17:33:57.538Z,21.51
2018-09-10T17:36:26.251Z,21.43
2018-09-10T17:38:55.077Z,21.36
2018-09-10T17:41:24.664Z,21.31
2018-09-10T17:43:53.463Z,21.26
2018-09-10T17:46:22.130Z,21.25
2018-09-10T17:48:50.854Z,21.23
2018-09-10T17:51:19.653Z,21.17
2018-09-10T17:53:48.994Z,21.15
2018-09-10T17:56:27.441Z,21.15
2018-09-10T17:58:57.899Z,21.12
2018-09-10T18:01:27.363Z,21.11
2018-09-10T18:03:56.594Z,21.08
2018-09-10T18:06:26.357Z,21.07
2018-09-10T18:08:54.994Z,21.08
2018-09-10T18:11:23.676Z,21.01
2018-09-10T18:13:53.361Z,21.03
2018-09-10T18:16:23.358Z,21.03
2018-09-10T18:18:54.155Z,20.98
2018-09-10T18:21:23.889Z,20.98
2018-09-10T18:23:52.866Z,20.96
2018-09-10T18:26:22.969Z,20.96
2018-09-10T18:28:51.811Z,20.95
2018-09-10T18:31:20.594Z,20.94
2018-09-10T18:33:49.362Z,20.91
2018-09-10T18:36:18.167Z,20.89
2018-09-10T18:38:47.133Z,20.91
2018-09-10T18:41:15.694Z,20.92
2018-09-10T18:43:44.832Z,20.91
2018-09-10T18:46:15.894Z,20.90
2018-09-10T18:48:44.646Z,20.87
2018-09-10T18:51:13.253Z,20.85
2018-09-10T18:53:43.022Z,20.84
2018-09-10T18:56:17.388Z,20.82
2018-09-10T18:58:46.141Z,20.80
2018-09-10T19:01:15.830Z,20.75
2018-09-10T19:03:44.732Z,20.74
2018-09-10T19:06:14.217Z,20.68
2018-09-10T19:08:44.644Z,20.65
2018-09-10T19:11:13.548Z,20.66
2018-09-10T19:13:42.349Z,20.65
2018-09-10T19:16:11.693Z,20.66
2018-09-10T19:18:41.630Z,20.62
2018-09-10T19:21:10.624Z,20.58
2018-09-10T19:23:40.067Z,20.57
2018-09-10T19:26:08.885Z,20.54
2018-09-10T19:28:37.987Z,20.52
2018-09-10T19:31:06.864Z,20.50
2018-09-10T19:33:35.691Z,20.49
2018-09-10T19:36:06.226Z,20.47
2018-09-10T19:38:35.223Z,20.40
2018-09-10T19:41:04.415Z,20.37
2018-09-10T19:43:33.474Z,20.35
2018-09-10T19:46:03.383Z,20.31
2018-09-10T19:48:32.424Z,20.31
2018-09-10T19:51:03.116Z,20.28
2018-09-10T19:53:32.203Z,20.27
2018-09-10T19:56:02.241Z,20.26
2018-09-10T19:58:31.454Z,20.27
2018-09-10T20:01:00.292Z,20.26
2018-09-10T20:03:29.174Z,20.26
2018-09-10T20:06:00.144Z,20.25
2018-09-10T20:08:28.982Z,20.24
2018-09-10T20:10:57.922Z,20.17
2018-09-10T20:13:26.827Z,20.11
2018-09-10T20:15:56.396Z,20.06
2018-09-10T20:18:25.174Z,20.06
2018-09-10T20:20:55.001Z,20.02
2018-09-10T20:23:24.237Z,19.95
2018-09-10T20:25:52.922Z,19.97
2018-09-10T20:28:21.660Z,19.95
2018-09-10T20:30:50.537Z,19.93
2018-09-10T20:33:19.309Z,19.96
2018-09-10T20:35:48.455Z,19.99
2018-09-10T20:38:17.197Z,20.00
2018-09-10T20:40:45.986Z,20.01
2018-09-10T20:43:14.727Z,19.98
2018-09-10T20:45:43.382Z,19.96
2018-09-10T20:48:12.202Z,19.93
2018-09-10T20:50:41.484Z,19.91
2018-09-10T20:53:10.496Z,19.90
2018-09-10T20:55:39.171Z,19.91
2018-09-10T20:58:08.658Z,19.92
2018-09-10T21:00:38.945Z,19.88
2018-09-10T21:03:08.549Z,19.85
2018-09-10T21:05:37.622Z,19.83
2018-09-10T21:08:06.401Z,19.81
2018-09-10T21:10:35.117Z,19.77
2018-09-10T21:13:04.035Z,19.79
2018-09-10T21:15:32.716Z,19.77
2018-09-10T21:18:01.801Z,19.80
2018-09-10T21:20:30.389Z,19.79
2018-09-10T21:22:58.939Z,19.73
2018-09-10T21:25:28.328Z,19.71
2018-09-10T21:27:57.933Z,19.64
2018-09-10T21:30:26.834Z,19.65
2018-09-10T21:32:56.131Z,19.67
2018-09-10T21:35:25.066Z,19.67
2018-09-10T21:37:53.950Z,19.68
2018-09-10T21:40:22.720Z,19.68
2018-09-10T21:42:53.094Z,19.64
2018-09-10T21:45:22.027Z,19.60
2018-09-10T21:47:51.765Z,19.62
2018-09-10T21:50:20.553Z,19.62
2018-09-10T21:52:49.339Z,19.60
2018-09-10T21:55:18.114Z,19.55
2018-09-10T21:57:47.737Z,19.50
2018-09-10T22:00:16.476Z,19.51
2018-09-10T22:02:45.164Z,19.52
2018-09-10T22:05:13.711Z,19.49
2018-09-10T22:07:42.373Z,19.45
2018-09-10T22:10:11.079Z,19.41
2018-09-10T22:12:39.655Z,19.38
2018-09-10T22:15:08.340Z,19.35
2018-09-10T22:17:37.001Z,19.31
2018-09-10T22:20:06.010Z,19.32
2018-09-10T22:22:35.347Z,19.31
2018-09-10T22:25:04.092Z,19.30
2018-09-10T22:27:32.775Z,19.30
2018-09-10T22:30:02.397Z,19.33
2018-09-10T22:32:31.072Z,19.33
2018-09-10T22:34:59.960Z,19.25
2018-09-10T22:37:29.699Z,19.24
2018-09-10T22:39:58.453Z,19.22
2018-09-10T22:42:27.466Z,19.23
2018-09-10T22:44:56.109Z,19.21
2018-09-10T22:47:25.807Z,19.24
2018-09-10T22:49:54.569Z,19.22
2018-09-10T22:52:23.323Z,19.23
2018-09-10T22:54:52.919Z,19.21
2018-09-10T22:57:22.566Z,19.20
2018-09-10T22:59:51.756Z,19.20
2018-09-10T23:02:20.544Z,19.18
2018-09-10T23:04:49.344Z,19.18
2018-09-10T23:07:18.188Z,19.16
2018-09-10T23:09:47.186Z,19.26
2018-09-10T23:12:16.416Z,19.28
2018-09-10T23:14:45.584Z,19.31
2018-09-10T23:17:14.210Z,19.33
2018-09-10T23:19:42.745Z,19.31
2018-09-10T23:22:11.294Z,19.33
2018-09-10T23:24:40.006Z,19.32
2018-09-10T23:27:08.635Z,19.41
2018-09-10T23:29:37.308Z,19.46
2018-09-10T23:32:06.048Z,19.48
2018-09-10T23:34:34.527Z,19.52
2018-09-10T23:37:03.236Z,19.52
2018-09-10T23:39:32.299Z,19.53
2018-09-10T23:42:01.751Z,19.53
2018-09-10T23:44:30.534Z,19.53
2018-09-10T23:46:59.254Z,19.52
2018-09-10T23:49:28.269Z,19.49
2018-09-10T23:51:57.242Z,19.47
2018-09-10T23:54:26.033Z,19.45
2018-09-10T23:56:55.707Z,19.39
2018-09-10T23:59:24.689Z,19.35
